Time;durP1;ratioP1;P1;durP2;ratioP2;P2;SDS_P1;SDS_P2;PMS_P1;PMS_P2;Temp;Humidity;BMP_temperature;BMP_pressure;BME280_temperature;BME280_humidity;BME280_pressure;Samples;Min_cycle;Max_cycle;Signal;HPM_P1;HPM_P2
2024/02/26 00:01:57;;;;;;;;;;;7.20;1.00;;;;;;5004909;28;19920;-82
2024/02/26 00:04:23;;;;;;;;;;;7.20;99.90;;;;;;5022751;28;19972;-83
2024/02/26 00:06:51;;;;;;;;;;;7.20;99.90;;;;;;5003541;28;19914;-82
2024/02/26 00:09:16;;;;;;;;;;;7.20;99.90;;;;;;5031467;28;19913;-83
2024/02/26 00:11:42;;;;;;;;;;;7.20;1.00;;;;;;5021968;28;20404;-83
2024/02/26 00:14:07;;;;;;;;;;;7.20;1.00;;;;;;5027033;28;19918;-83
2024/02/26 00:16:33;;;;;;;;;;;7.20;99.90;;;;;;5029749;28;19932;-83
2024/02/26 00:18:58;;;;;;;;;;;7.30;1.00;;;;;;5017234;28;19913;-82
2024/02/26 00:21:23;;;;;;;;;;;7.20;1.00;;;;;;5024811;28;20040;-82
2024/02/26 00:23:50;;;;;;;;;;;7.20;1.00;;;;;;5022869;28;19914;-82
2024/02/26 00:26:15;;;;;;;;;;;7.20;1.00;;;;;;5026017;28;19913;-81
2024/02/26 00:28:41;;;;;;;;;;;7.20;1.00;;;;;;5022146;28;19922;-82
2024/02/26 00:31:06;;;;;;;;;;;7.20;1.00;;;;;;5022521;28;19960;-81
2024/02/26 00:33:32;;;;;;;;;;;7.20;1.00;;;;;;5022885;28;20341;-82
2024/02/26 00:35:57;;;;;;;;;;;7.20;12.70;;;;;;5022815;28;19913;-82
2024/02/26 00:38:23;;;;;;;;;;;7.20;60.80;;;;;;5027161;28;19913;-82
2024/02/26 00:40:48;;;;;;;;;;;7.20;99.90;;;;;;5022461;28;19932;-82
2024/02/26 00:43:14;;;;;;;;;;;7.20;99.90;;;;;;5003048;28;19924;-84
2024/02/26 00:45:40;;;;;;;;;;;7.20;99.90;;;;;;5019136;28;19922;-83
2024/02/26 00:48:05;;;;;;;;;;;7.10;99.90;;;;;;5024980;28;20380;-83
2024/02/26 00:50:31;;;;;;;;;;;7.10;99.90;;;;;;5020965;28;19920;-83
2024/02/26 00:52:56;;;;;;;;;;;7.10;99.90;;;;;;5026321;28;20323;-84
2024/02/26 00:55:22;;;;;;;;;;;7.20;99.90;;;;;;5007389;28;19921;-83
2024/02/26 00:57:47;;;;;;;;;;;7.20;99.90;;;;;;5003849;28;19913;-84
2024/02/26 01:00:13;;;;;;;;;;;7.20;99.90;;;;;;5015478;28;19920;-84
2024/02/26 01:02:39;;;;;;;;;;;7.20;99.90;;;;;;5023268;28;19914;-80
2024/02/26 01:05:06;;;;;;;;;;;7.20;99.90;;;;;;5022772;28;19921;-82
2024/02/26 01:07:35;;;;;;;;;;;7.20;99.90;;;;;;5022461;28;19971;-83
2024/02/26 01:10:03;;;;;;;;;;;7.10;99.90;;;;;;5021971;28;19928;-83
2024/02/26 01:12:29;;;;;;;;;;;7.10;1.00;;;;;;5022021;28;19914;-81
2024/02/26 01:14:55;;;;;;;;;;;7.10;1.00;;;;;;5022241;28;20610;-81
2024/02/26 01:17:20;;;;;;;;;;;7.10;1.00;;;;;;5020619;28;20612;-82
2024/02/26 01:19:46;;;;;;;;;;;7.10;1.00;;;;;;5022248;28;20489;-82
2024/02/26 01:22:11;;;;;;;;;;;7.10;1.00;;;;;;5021139;28;19928;-81
2024/02/26 01:24:37;;;;;;;;;;;7.10;1.00;;;;;;5024960;28;19921;-82
2024/02/26 01:27:02;;;;;;;;;;;7.10;1.00;;;;;;5021932;28;19917;-83
2024/02/26 01:29:28;;;;;;;;;;;7.00;1.00;;;;;;5014462;28;20000;-83
2024/02/26 01:31:53;;;;;;;;;;;7.00;1.00;;;;;;5025076;28;19913;-83
2024/02/26 01:34:19;;;;;;;;;;;7.00;1.00;;;;;;5020922;28;19914;-84
2024/02/26 01:36:44;;;;;;;;;;;7.00;1.00;;;;;;5004013;28;19928;-82
2024/02/26 01:39:12;;;;;;;;;;;7.00;1.00;;;;;;5024781;28;19936;-82
2024/02/26 01:41:38;;;;;;;;;;;7.00;1.00;;;;;;5025863;28;19914;-81
2024/02/26 01:44:04;;;;;;;;;;;7.00;1.00;;;;;;5021965;28;20288;-83
2024/02/26 01:46:30;;;;;;;;;;;7.00;1.00;;;;;;5026846;28;20395;-82
2024/02/26 01:48:55;;;;;;;;;;;7.00;1.00;;;;;;5020362;28;19914;-83
2024/02/26 01:51:21;;;;;;;;;;;7.00;1.00;;;;;;5025675;28;19919;-81
2024/02/26 01:53:46;;;;;;;;;;;7.00;1.00;;;;;;5008886;28;19917;-82
2024/02/26 01:56:12;;;;;;;;;;;7.00;1.00;;;;;;5027027;28;19935;-82
2024/02/26 01:58:38;;;;;;;;;;;6.90;1.00;;;;;;5021923;28;19914;-81
2024/02/26 02:01:03;;;;;;;;;;;7.00;1.00;;;;;;5020829;28;19928;-81
2024/02/26 02:03:30;;;;;;;;;;;7.00;1.00;;;;;;5024680;28;19913;-82
2024/02/26 02:05:55;;;;;;;;;;;6.90;1.00;;;;;;5011233;28;19917;-82
2024/02/26 02:08:22;;;;;;;;;;;7.00;1.00;;;;;;5024548;28;19924;-81
2024/02/26 02:10:49;;;;;;;;;;;7.00;1.00;;;;;;5018581;28;19920;-83
2024/02/26 02:13:14;;;;;;;;;;;7.00;1.00;;;;;;5020669;28;21435;-81
2024/02/26 02:15:40;;;;;;;;;;;7.00;1.00;;;;;;5021721;28;19960;-82
2024/02/26 02:18:05;;;;;;;;;;;6.90;1.00;;;;;;5005970;28;19960;-83
2024/02/26 02:20:32;;;;;;;;;;;7.00;1.00;;;;;;5016796;28;20012;-83
2024/02/26 02:22:58;;;;;;;;;;;6.90;1.00;;;;;;5030358;28;20268;-83
2024/02/26 02:25:23;;;;;;;;;;;6.90;1.00;;;;;;5013154;28;19970;-83
2024/02/26 02:27:49;;;;;;;;;;;6.90;1.00;;;;;;5020049;28;19917;-84
2024/02/26 02:30:16;;;;;;;;;;;6.90;1.00;;;;;;5010268;28;20505;-82
2024/02/26 02:32:42;;;;;;;;;;;6.90;1.00;;;;;;5011317;28;19921;-82
2024/02/26 02:35:07;;;;;;;;;;;6.90;1.00;;;;;;5028257;28;19917;-82
2024/02/26 02:37:33;;;;;;;;;;;6.90;1.00;;;;;;5006484;28;20006;-82
2024/02/26 02:39:58;;;;;;;;;;;6.90;1.00;;;;;;5018035;28;20086;-82
2024/02/26 02:42:24;;;;;;;;;;;6.90;1.00;;;;;;5015453;28;19917;-82
2024/02/26 02:44:49;;;;;;;;;;;6.90;1.00;;;;;;5012570;28;19917;-81
2024/02/26 02:47:15;;;;;;;;;;;6.90;1.00;;;;;;5009392;28;19917;-82
2024/02/26 02:49:40;;;;;;;;;;;6.90;1.00;;;;;;5003957;28;20009;-81
2024/02/26 02:52:06;;;;;;;;;;;6.90;1.00;;;;;;5017177;28;19913;-82
2024/02/26 02:54:31;;;;;;;;;;;6.90;1.00;;;;;;5019238;28;20517;-80
2024/02/26 02:56:57;;;;;;;;;;;6.90;1.00;;;;;;5016211;28;20033;-81
2024/02/26 02:59:22;;;;;;;;;;;6.90;1.00;;;;;;4996516;28;19976;-80
2024/02/26 03:01:47;;;;;;;;;;;6.90;1.00;;;;;;5017955;28;20387;-82
2024/02/26 03:04:13;;;;;;;;;;;6.90;1.00;;;;;;5017116;28;19999;-81
2024/02/26 03:06:38;;;;;;;;;;;6.90;1.00;;;;;;5007487;28;19918;-82
2024/02/26 03:09:04;;;;;;;;;;;6.90;1.00;;;;;;5022504;28;21707;-82
2024/02/26 03:11:29;;;;;;;;;;;6.90;1.00;;;;;;5010754;28;19940;-84
2024/02/26 03:13:55;;;;;;;;;;;6.90;1.00;;;;;;5030038;28;19913;-83
2024/02/26 03:16:20;;;;;;;;;;;6.90;1.00;;;;;;5029078;28;20459;-83
2024/02/26 03:18:46;;;;;;;;;;;6.90;1.00;;;;;;5030993;28;19913;-83
2024/02/26 03:21:11;;;;;;;;;;;6.90;1.00;;;;;;5024483;28;19922;-83
2024/02/26 03:23:36;;;;;;;;;;;6.90;1.00;;;;;;5027003;28;19913;-81
2024/02/26 03:26:05;;;;;;;;;;;6.90;1.00;;;;;;5026247;28;19925;-81
2024/02/26 03:28:33;;;;;;;;;;;6.90;1.00;;;;;;5015699;28;19921;-82
2024/02/26 03:30:59;;;;;;;;;;;6.90;1.00;;;;;;5023453;28;19920;-82
2024/02/26 03:33:24;;;;;;;;;;;6.90;1.00;;;;;;5022569;28;19916;-83
2024/02/26 03:35:50;;;;;;;;;;;6.90;1.00;;;;;;5028670;28;20110;-83
2024/02/26 03:38:15;;;;;;;;;;;6.90;1.00;;;;;;5004816;28;19940;-82
2024/02/26 03:40:41;;;;;;;;;;;6.90;1.00;;;;;;5025503;28;19952;-81
2024/02/26 03:43:07;;;;;;;;;;;6.90;1.00;;;;;;5023068;28;19913;-82
2024/02/26 03:45:33;;;;;;;;;;;6.90;1.00;;;;;;5008936;28;19925;-81
2024/02/26 03:47:58;;;;;;;;;;;6.90;1.00;;;;;;5028731;28;19921;-83
2024/02/26 03:50:24;;;;;;;;;;;6.90;1.00;;;;;;5024869;28;19917;-82
2024/02/26 03:52:49;;;;;;;;;;;6.90;1.00;;;;;;5022988;28;19923;-84
2024/02/26 03:55:15;;;;;;;;;;;6.80;1.00;;;;;;5026843;28;19913;-83
2024/02/26 03:57:40;;;;;;;;;;;6.90;1.00;;;;;;5013417;28;19913;-82
2024/02/26 04:00:06;;;;;;;;;;;6.80;1.00;;;;;;5019938;28;20000;-83
2024/02/26 04:02:31;;;;;;;;;;;6.80;1.00;;;;;;5022986;28;19913;-82
2024/02/26 04:04:57;;;;;;;;;;;6.80;1.00;;;;;;5023463;28;19941;-81
2024/02/26 04:07:22;;;;;;;;;;;6.80;1.00;;;;;;5023061;28;20011;-82
2024/02/26 04:09:48;;;;;;;;;;;6.80;1.00;;;;;;5018078;28;20287;-82
2024/02/26 04:12:14;;;;;;;;;;;6.80;1.00;;;;;;5021731;28;19917;-79
2024/02/26 04:14:39;;;;;;;;;;;6.80;1.00;;;;;;5001519;28;19914;-82
2024/02/26 04:17:05;;;;;;;;;;;6.80;1.00;;;;;;5024891;28;21913;-82
2024/02/26 04:19:30;;;;;;;;;;;6.80;1.00;;;;;;5030378;28;19920;-82
2024/02/26 04:21:56;;;;;;;;;;;6.80;1.00;;;;;;5029411;28;19917;-82
2024/02/26 04:24:21;;;;;;;;;;;6.80;1.00;;;;;;5028911;28;19917;-81
2024/02/26 04:26:47;;;;;;;;;;;6.80;1.00;;;;;;5031902;28;20521;-81
2024/02/26 04:29:12;;;;;;;;;;;6.90;1.00;;;;;;5026990;28;19971;-81
2024/02/26 04:31:38;;;;;;;;;;;6.80;1.00;;;;;;5026387;28;19924;-82
2024/02/26 04:34:04;;;;;;;;;;;6.80;1.00;;;;;;5021572;28;19917;-83
2024/02/26 04:36:29;;;;;;;;;;;6.80;1.00;;;;;;5026851;28;19927;-82
2024/02/26 04:38:55;;;;;;;;;;;6.80;1.00;;;;;;5024680;28;19960;-82
2024/02/26 04:41:21;;;;;;;;;;;6.70;1.00;;;;;;5029928;28;20295;-83
2024/02/26 04:43:46;;;;;;;;;;;6.70;1.00;;;;;;5030789;28;19920;-83
2024/02/26 04:46:12;;;;;;;;;;;6.70;1.00;;;;;;5021925;28;20051;-84
2024/02/26 04:48:38;;;;;;;;;;;6.60;3.60;;;;;;5022395;28;20118;-82
2024/02/26 04:51:04;;;;;;;;;;;6.60;9.90;;;;;;5009727;28;19925;-81
2024/02/26 04:53:29;;;;;;;;;;;6.60;15.10;;;;;;5024858;28;19920;-83
2024/02/26 04:55:55;;;;;;;;;;;6.60;17.00;;;;;;5022434;28;19945;-81
2024/02/26 04:58:20;;;;;;;;;;;6.50;21.20;;;;;;5012852;28;19913;-82
2024/02/26 05:00:46;;;;;;;;;;;6.60;25.90;;;;;;5021524;28;19949;-84
2024/02/26 05:03:15;;;;;;;;;;;6.50;27.10;;;;;;5009354;28;19921;-82
2024/02/26 05:05:41;;;;;;;;;;;6.50;29.80;;;;;;5014373;28;19971;-80
2024/02/26 05:08:07;;;;;;;;;;;6.50;32.00;;;;;;5025096;28;19921;-81
2024/02/26 05:10:33;;;;;;;;;;;6.50;33.50;;;;;;5020324;28;21901;-83
2024/02/26 05:12:58;;;;;;;;;;;6.50;34.00;;;;;;5025748;28;20391;-83
2024/02/26 05:15:24;;;;;;;;;;;6.50;33.80;;;;;;5020784;28;19925;-84
2024/02/26 05:17:49;;;;;;;;;;;6.60;35.50;;;;;;5020201;28;19947;-83
2024/02/26 05:20:15;;;;;;;;;;;6.60;37.90;;;;;;5022755;28;19913;-81
2024/02/26 05:22:40;;;;;;;;;;;6.50;38.40;;;;;;5023943;28;19913;-84
2024/02/26 05:25:06;;;;;;;;;;;6.60;38.50;;;;;;5024146;28;20306;-82
2024/02/26 05:27:31;;;;;;;;;;;6.60;39.10;;;;;;5023535;28;19914;-83
2024/02/26 05:29:57;;;;;;;;;;;6.60;37.80;;;;;;5018294;28;19920;-82
2024/02/26 05:32:22;;;;;;;;;;;6.60;38.60;;;;;;5021998;28;19913;-83
2024/02/26 05:34:47;;;;;;;;;;;6.60;38.90;;;;;;5009345;28;19921;-83
2024/02/26 05:37:13;;;;;;;;;;;6.60;33.00;;;;;;5007492;28;19919;-83
2024/02/26 05:39:39;;;;;;;;;;;6.60;29.90;;;;;;5006097;28;19913;-81
2024/02/26 05:42:04;;;;;;;;;;;6.50;27.60;;;;;;5020698;28;19956;-83
2024/02/26 05:44:30;;;;;;;;;;;6.50;25.60;;;;;;5018878;28;19925;-82
2024/02/26 05:46:55;;;;;;;;;;;6.50;23.60;;;;;;5025665;28;19909;-82
2024/02/26 05:49:22;;;;;;;;;;;6.50;23.70;;;;;;5024346;28;19913;-81
2024/02/26 05:51:47;;;;;;;;;;;6.50;26.00;;;;;;5022043;28;21972;-81
2024/02/26 05:54:13;;;;;;;;;;;6.60;29.90;;;;;;5020395;28;20030;-81
2024/02/26 05:56:39;;;;;;;;;;;6.60;29.00;;;;;;5021599;28;19927;-81
2024/02/26 05:59:05;;;;;;;;;;;6.60;25.90;;;;;;5020072;28;19917;-82
2024/02/26 06:01:30;;;;;;;;;;;6.60;24.30;;;;;;5019791;28;19913;-82
2024/02/26 06:03:56;;;;;;;;;;;6.50;21.60;;;;;;5019198;28;20318;-82
2024/02/26 06:06:23;;;;;;;;;;;6.50;20.20;;;;;;5025369;28;19984;-82
2024/02/26 06:08:49;;;;;;;;;;;6.50;16.70;;;;;;5004859;28;19921;-80
2024/02/26 06:11:14;;;;;;;;;;;6.50;17.90;;;;;;5012737;28;19917;-82
2024/02/26 06:13:40;;;;;;;;;;;6.40;21.50;;;;;;5025632;28;19913;-82
2024/02/26 06:16:05;;;;;;;;;;;6.50;24.10;;;;;;5023242;28;19935;-82
2024/02/26 06:18:31;;;;;;;;;;;6.50;25.60;;;;;;5023357;28;19913;-82
2024/02/26 06:20:56;;;;;;;;;;;6.40;24.10;;;;;;5020768;28;20356;-82
2024/02/26 06:23:22;;;;;;;;;;;6.40;23.60;;;;;;5022035;28;20016;-82
2024/02/26 06:25:48;;;;;;;;;;;6.40;25.90;;;;;;5023752;28;20303;-82
2024/02/26 06:28:13;;;;;;;;;;;6.40;29.10;;;;;;5006291;28;20020;-81
2024/02/26 06:30:39;;;;;;;;;;;6.50;28.20;;;;;;5021395;28;19921;-81
2024/02/26 06:33:04;;;;;;;;;;;6.50;27.30;;;;;;5001759;28;19920;-82
2024/02/26 06:35:30;;;;;;;;;;;6.50;28.60;;;;;;5021615;28;19913;-82
2024/02/26 06:37:55;;;;;;;;;;;6.50;28.20;;;;;;5017821;28;20466;-81
2024/02/26 06:40:21;;;;;;;;;;;6.50;26.20;;;;;;5021701;28;19917;-80
2024/02/26 06:42:46;;;;;;;;;;;6.50;21.60;;;;;;5018461;28;19933;-81
2024/02/26 06:45:12;;;;;;;;;;;6.60;19.50;;;;;;5021163;28;20341;-81
2024/02/26 06:47:37;;;;;;;;;;;6.50;16.70;;;;;;5017234;28;20020;-81
2024/02/26 06:50:03;;;;;;;;;;;6.50;13.70;;;;;;5017290;28;19917;-82
2024/02/26 06:52:28;;;;;;;;;;;6.50;12.30;;;;;;5017039;28;19914;-81
2024/02/26 06:54:54;;;;;;;;;;;6.50;12.10;;;;;;5019104;28;19997;-82
2024/02/26 06:57:21;;;;;;;;;;;6.50;12.40;;;;;;5020111;28;19921;-81
2024/02/26 06:59:47;;;;;;;;;;;6.40;15.20;;;;;;4998480;28;20346;-80
2024/02/26 07:02:13;;;;;;;;;;;6.40;18.50;;;;;;4997269;28;19921;-81
2024/02/26 07:04:38;;;;;;;;;;;6.50;22.80;;;;;;5015995;28;20295;-81
2024/02/26 07:07:04;;;;;;;;;;;6.50;17.40;;;;;;5012455;28;19969;-81
2024/02/26 07:09:29;;;;;;;;;;;6.50;12.30;;;;;;5013150;28;20286;-81
2024/02/26 07:11:55;;;;;;;;;;;6.60;12.40;;;;;;5014142;28;19913;-81
2024/02/26 07:14:20;;;;;;;;;;;6.60;10.00;;;;;;5002275;28;20004;-81
2024/02/26 07:16:46;;;;;;;;;;;6.60;6.70;;;;;;5012846;28;20393;-81
2024/02/26 07:19:11;;;;;;;;;;;6.60;1.80;;;;;;5000050;28;19978;-81
2024/02/26 07:21:37;;;;;;;;;;;6.60;1.40;;;;;;5017902;28;19959;-80
2024/02/26 07:24:02;;;;;;;;;;;6.70;1.60;;;;;;5005415;28;19967;-79
2024/02/26 07:26:29;;;;;;;;;;;6.60;1.00;;;;;;5018008;28;19920;-81
2024/02/26 07:28:55;;;;;;;;;;;6.70;1.00;;;;;;5020259;28;19913;-80
2024/02/26 07:31:20;;;;;;;;;;;6.70;1.00;;;;;;5026755;28;20287;-82
2024/02/26 07:33:46;;;;;;;;;;;6.70;1.00;;;;;;5001384;28;19921;-80
2024/02/26 07:36:11;;;;;;;;;;;6.70;1.00;;;;;;5025445;28;19996;-80
2024/02/26 07:38:37;;;;;;;;;;;6.70;1.00;;;;;;4998575;28;19914;-80
2024/02/26 07:41:02;;;;;;;;;;;6.70;1.00;;;;;;5024158;28;19917;-81
2024/02/26 07:43:28;;;;;;;;;;;6.70;1.00;;;;;;5006690;28;19901;-82
2024/02/26 07:45:53;;;;;;;;;;;6.60;1.00;;;;;;5023689;28;19925;-82
2024/02/26 07:48:19;;;;;;;;;;;6.60;1.00;;;;;;5028233;28;19913;-82
2024/02/26 07:50:44;;;;;;;;;;;6.60;4.50;;;;;;5026244;28;19913;-82
2024/02/26 07:53:10;;;;;;;;;;;6.60;7.50;;;;;;5027016;28;19952;-81
2024/02/26 07:55:35;;;;;;;;;;;6.60;6.80;;;;;;5021628;28;20356;-83
2024/02/26 07:58:01;;;;;;;;;;;6.60;7.00;;;;;;5016754;28;19914;-82
2024/02/26 08:00:26;;;;;;;;;;;6.60;11.10;;;;;;5027163;28;19996;-79
2024/02/26 08:02:52;;;;;;;;;;;6.70;13.80;;;;;;5027599;28;19913;-82
2024/02/26 08:05:17;;;;;;;;;;;6.70;11.90;;;;;;5020768;28;19918;-81
2024/02/26 08:07:43;;;;;;;;;;;6.70;4.60;;;;;;5020052;28;19947;-81
2024/02/26 08:10:08;;;;;;;;;;;6.70;1.00;;;;;;5024578;28;20020;-83
2024/02/26 08:12:34;;;;;;;;;;;6.60;1.00;;;;;;5029204;28;19917;-81
2024/02/26 08:15:01;;;;;;;;;;;6.60;2.10;;;;;;5024207;28;19918;-81
2024/02/26 08:17:27;;;;;;;;;;;6.70;4.10;;;;;;5023864;28;20407;-83
2024/02/26 08:19:53;;;;;;;;;;;6.70;1.00;;;;;;5017913;28;19967;-82
2024/02/26 08:22:18;;;;;;;;;;;6.70;1.00;;;;;;5017697;28;19921;-82
2024/02/26 08:24:44;;;;;;;;;;;6.70;1.00;;;;;;5024549;28;19932;-82
2024/02/26 08:27:09;;;;;;;;;;;6.70;1.00;;;;;;5021806;28;19917;-82
2024/02/26 08:29:35;;;;;;;;;;;6.70;1.00;;;;;;5015614;28;19922;-83
2024/02/26 08:32:00;;;;;;;;;;;6.70;1.00;;;;;;5024172;28;20003;-81
2024/02/26 08:34:26;;;;;;;;;;;6.70;1.00;;;;;;5025868;28;19921;-81
2024/02/26 08:36:51;;;;;;;;;;;6.60;1.00;;;;;;5014663;28;19928;-82
2024/02/26 08:39:17;;;;;;;;;;;6.60;1.00;;;;;;5008877;28;19917;-83
2024/02/26 08:41:45;;;;;;;;;;;6.60;1.00;;;;;;5025127;28;19913;-82
2024/02/26 08:44:11;;;;;;;;;;;6.60;1.40;;;;;;5011229;28;19917;-82
2024/02/26 08:46:36;;;;;;;;;;;6.60;3.00;;;;;;5020420;28;19923;-82
2024/02/26 08:49:02;;;;;;;;;;;6.60;2.30;;;;;;5028560;28;19963;-82
2024/02/26 08:51:30;;;;;;;;;;;6.60;1.00;;;;;;5038701;28;19952;-81
2024/02/26 08:53:56;;;;;;;;;;;6.70;1.00;;;;;;5039723;28;19920;-81
2024/02/26 08:56:21;;;;;;;;;;;6.60;1.00;;;;;;5035990;28;19917;-83
2024/02/26 08:58:48;;;;;;;;;;;6.60;1.40;;;;;;5039114;28;19925;-82
2024/02/26 09:01:14;;;;;;;;;;;6.60;1.00;;;;;;5031677;28;19952;-83
2024/02/26 09:03:40;;;;;;;;;;;6.60;1.30;;;;;;5033882;28;19937;-83
2024/02/26 09:06:06;;;;;;;;;;;6.60;4.00;;;;;;5033231;28;19917;-83
2024/02/26 09:08:32;;;;;;;;;;;6.60;11.10;;;;;;5032963;28;20363;-83
2024/02/26 09:10:57;;;;;;;;;;;6.60;13.40;;;;;;5036513;28;19924;-82
2024/02/26 09:13:23;;;;;;;;;;;6.60;14.80;;;;;;5025477;28;20354;-82
2024/02/26 09:15:49;;;;;;;;;;;6.60;16.00;;;;;;5020167;28;19917;-83
2024/02/26 09:18:14;;;;;;;;;;;6.60;14.00;;;;;;5034487;28;19920;-83
2024/02/26 09:20:40;;;;;;;;;;;6.70;13.50;;;;;;5037853;28;19920;-82
2024/02/26 09:23:06;;;;;;;;;;;6.60;16.00;;;;;;5038827;28;19913;-83
2024/02/26 09:25:33;;;;;;;;;;;6.60;17.20;;;;;;5039535;28;19924;-82
2024/02/26 09:27:59;;;;;;;;;;;6.60;16.10;;;;;;5039090;28;19913;-82
2024/02/26 09:30:24;;;;;;;;;;;6.70;17.30;;;;;;5039030;28;20666;-83
2024/02/26 09:32:50;;;;;;;;;;;6.70;17.70;;;;;;5040397;28;19928;-83
2024/02/26 09:35:15;;;;;;;;;;;6.80;16.30;;;;;;5022851;28;19913;-82
2024/02/26 09:37:43;;;;;;;;;;;6.80;17.20;;;;;;5038773;28;19992;-82
2024/02/26 09:40:11;;;;;;;;;;;6.80;14.10;;;;;;5022815;28;20002;-82
2024/02/26 09:42:37;;;;;;;;;;;6.80;12.00;;;;;;5042823;28;19917;-80
2024/02/26 09:45:07;;;;;;;;;;;6.80;9.80;;;;;;5037974;28;19940;-83
2024/02/26 09:47:33;;;;;;;;;;;6.90;11.90;;;;;;5035001;28;19971;-82
2024/02/26 09:49:59;;;;;;;;;;;6.90;10.50;;;;;;5040346;28;19913;-83
2024/02/26 09:52:25;;;;;;;;;;;6.80;10.90;;;;;;5021206;28;20032;-83
2024/02/26 09:54:51;;;;;;;;;;;6.90;12.20;;;;;;5039408;28;20407;-81
2024/02/26 09:57:17;;;;;;;;;;;6.90;15.40;;;;;;5020707;28;20425;-82
2024/02/26 09:59:43;;;;;;;;;;;7.00;20.10;;;;;;5039241;28;19948;-82
2024/02/26 10:02:13;;;;;;;;;;;7.00;15.80;;;;;;5015540;28;19919;-80
2024/02/26 10:04:42;;;;;;;;;;;7.00;16.00;;;;;;5029673;28;19998;-81
2024/02/26 10:07:09;;;;;;;;;;;7.00;16.00;;;;;;5030295;28;19935;-82
2024/02/26 10:09:35;;;;;;;;;;;6.90;16.40;;;;;;5029156;28;19949;-82
2024/02/26 10:12:01;;;;;;;;;;;6.90;20.80;;;;;;5032949;28;19944;-81
2024/02/26 10:14:26;;;;;;;;;;;6.90;21.40;;;;;;5009503;28;19917;-83
2024/02/26 10:16:52;;;;;;;;;;;6.90;22.80;;;;;;5031794;28;20047;-82
2024/02/26 10:19:27;;;;;;;;;;;7.00;24.60;;;;;;5033582;28;19942;-82
2024/02/26 10:21:56;;;;;;;;;;;7.00;26.30;;;;;;5034503;28;19978;-82
2024/02/26 10:24:21;;;;;;;;;;;7.00;25.90;;;;;;5031129;28;19920;-82
2024/02/26 10:26:47;;;;;;;;;;;7.00;24.30;;;;;;5016132;28;19928;-79
2024/02/26 10:29:12;;;;;;;;;;;7.00;24.00;;;;;;5033756;28;20042;-81
2024/02/26 10:31:41;;;;;;;;;;;7.10;21.20;;;;;;5032939;28;20542;-83
2024/02/26 10:34:07;;;;;;;;;;;7.10;18.80;;;;;;5030584;28;19913;-82
2024/02/26 10:36:34;;;;;;;;;;;7.20;15.30;;;;;;5031012;28;19920;-81
2024/02/26 10:39:01;;;;;;;;;;;7.20;14.70;;;;;;5031416;28;20020;-83
2024/02/26 10:41:27;;;;;;;;;;;7.50;14.10;;;;;;5029160;28;19936;-81
2024/02/26 10:43:52;;;;;;;;;;;7.60;6.20;;;;;;5035746;28;20370;-81
2024/02/26 10:46:18;;;;;;;;;;;7.80;1.00;;;;;;5011402;28;19917;-83
2024/02/26 10:48:49;;;;;;;;;;;8.00;1.00;;;;;;5038293;28;19917;-83
2024/02/26 10:51:15;;;;;;;;;;;8.20;1.00;;;;;;5040108;28;20318;-82
2024/02/26 10:53:42;;;;;;;;;;;8.20;1.00;;;;;;5040189;28;19913;-83
2024/02/26 10:56:08;;;;;;;;;;;8.30;1.00;;;;;;5039014;28;19940;-82
2024/02/26 10:58:34;;;;;;;;;;;8.40;1.00;;;;;;5038091;28;19917;-82
2024/02/26 11:01:00;;;;;;;;;;;8.50;1.00;;;;;;5037675;28;19924;-82
2024/02/26 11:03:26;;;;;;;;;;;8.50;1.00;;;;;;5038711;28;19920;-83
2024/02/26 11:05:52;;;;;;;;;;;8.50;1.00;;;;;;5037568;28;19925;-83
2024/02/26 11:08:21;;;;;;;;;;;8.40;1.00;;;;;;5037754;28;19921;-83
2024/02/26 11:10:48;;;;;;;;;;;8.70;1.00;;;;;;5020732;28;20284;-82
2024/02/26 11:13:14;;;;;;;;;;;8.70;1.00;;;;;;5036793;28;19965;-83
2024/02/26 11:15:39;;;;;;;;;;;8.70;1.00;;;;;;5017171;28;19928;-83
2024/02/26 11:18:06;;;;;;;;;;;8.70;1.00;;;;;;5037018;28;19941;-83
2024/02/26 11:20:32;;;;;;;;;;;8.70;1.00;;;;;;5040381;28;19956;-83
2024/02/26 11:22:57;;;;;;;;;;;8.70;1.00;;;;;;5040435;28;19963;-82
2024/02/26 11:25:23;;;;;;;;;;;8.70;1.00;;;;;;5041620;28;19975;-81
2024/02/26 11:27:51;;;;;;;;;;;8.70;1.00;;;;;;5022646;28;19913;-82
2024/02/26 11:30:17;;;;;;;;;;;8.80;1.00;;;;;;5041261;28;19913;-83
2024/02/26 11:32:46;;;;;;;;;;;9.00;1.00;;;;;;5036703;28;19967;-82
2024/02/26 11:35:15;;;;;;;;;;;9.10;1.00;;;;;;5036758;28;19996;-82
2024/02/26 11:37:41;;;;;;;;;;;9.40;1.00;;;;;;5037973;28;19949;-83
2024/02/26 11:40:10;;;;;;;;;;;9.60;1.00;;;;;;5036538;28;19918;-82
2024/02/26 11:42:42;;;;;;;;;;;9.80;1.00;;;;;;5034724;28;19983;-82
2024/02/26 11:45:28;;;;;;;;;;;10.00;99.90;;;;;;5037932;28;19917;-82
2024/02/26 11:47:56;;;;;;;;;;;10.10;99.90;;;;;;5061297;23;20035;-83
2024/02/26 11:50:38;;;;;;;;;;;10.30;99.90;;;;;;5050990;28;19920;-82
2024/02/26 11:53:22;;;;;;;;;;;10.40;99.90;;;;;;5051818;28;19909;-84
2024/02/26 11:55:49;;;;;;;;;;;10.40;59.80;;;;;;5053133;28;20335;-84
2024/02/26 11:58:14;;;;;;;;;;;10.20;1.00;;;;;;5047698;28;19912;-83
2024/02/26 12:00:40;;;;;;;;;;;10.00;26.50;;;;;;5055789;28;20023;-83
2024/02/26 12:03:08;;;;;;;;;;;9.80;24.90;;;;;;5052599;28;19909;-83
2024/02/26 12:05:34;;;;;;;;;;;9.50;99.90;;;;;;5054828;28;19929;-84
2024/02/26 12:08:03;;;;;;;;;;;9.40;99.90;;;;;;5050271;28;19934;-84
2024/02/26 12:10:36;;;;;;;;;;;9.10;99.90;;;;;;5055141;28;19920;-83
2024/02/26 12:13:07;;;;;;;;;;;9.00;99.90;;;;;;5047763;28;19917;-82
2024/02/26 12:15:43;;;;;;;;;;;8.80;99.90;;;;;;5053009;28;19909;-82
2024/02/26 12:18:10;;;;;;;;;;;8.70;1.00;;;;;;5033825;28;20397;-83
2024/02/26 12:20:36;;;;;;;;;;;8.60;1.00;;;;;;5052983;28;19916;-81
2024/02/26 12:23:02;;;;;;;;;;;8.60;1.00;;;;;;5054744;28;20481;-83
2024/02/26 12:25:28;;;;;;;;;;;8.60;1.00;;;;;;5053949;28;19924;-83
2024/02/26 12:27:54;;;;;;;;;;;8.70;1.00;;;;;;5036199;28;19909;-83
2024/02/26 12:30:20;;;;;;;;;;;8.70;1.00;;;;;;5033893;28;20429;-82
2024/02/26 12:32:50;;;;;;;;;;;8.70;1.00;;;;;;5053318;28;20394;-84
2024/02/26 12:35:16;;;;;;;;;;;8.70;1.00;;;;;;5053359;28;19927;-83
2024/02/26 12:37:42;;;;;;;;;;;8.80;1.00;;;;;;5053440;28;19919;-84
2024/02/26 12:40:11;;;;;;;;;;;8.90;1.00;;;;;;5036589;28;19921;-82
2024/02/26 12:42:40;;;;;;;;;;;9.00;1.00;;;;;;5054575;28;19909;-83
2024/02/26 12:45:12;;;;;;;;;;;9.10;1.00;;;;;;5051140;28;19917;-84
2024/02/26 12:47:38;;;;;;;;;;;9.30;1.00;;;;;;5051663;28;19920;-84
2024/02/26 12:50:04;;;;;;;;;;;9.30;99.90;;;;;;5060410;28;20291;-82
2024/02/26 12:52:33;;;;;;;;;;;9.30;99.90;;;;;;5042341;28;19909;-84
2024/02/26 12:54:59;;;;;;;;;;;9.20;99.90;;;;;;5055685;28;20318;-83
2024/02/26 12:57:24;;;;;;;;;;;9.20;99.90;;;;;;5052353;28;19921;-82
2024/02/26 12:59:50;;;;;;;;;;;9.10;99.90;;;;;;5052654;28;19909;-84
2024/02/26 13:02:15;;;;;;;;;;;9.00;99.90;;;;;;5050490;28;19912;-84
2024/02/26 13:04:41;;;;;;;;;;;8.90;1.00;;;;;;5047070;28;19917;-84
2024/02/26 13:07:06;;;;;;;;;;;8.80;1.00;;;;;;5053490;28;19913;-84
2024/02/26 13:09:33;;;;;;;;;;;8.80;1.00;;;;;;5056282;28;19927;-84
2024/02/26 13:12:00;;;;;;;;;;;8.80;1.00;;;;;;5037004;28;19921;-84
2024/02/26 13:14:25;;;;;;;;;;;8.80;1.00;;;;;;5056454;28;19913;-82
2024/02/26 13:16:57;;;;;;;;;;;8.70;1.00;;;;;;5054789;28;19923;-86
2024/02/26 13:19:23;;;;;;;;;;;8.60;1.00;;;;;;5054021;28;19917;-84
2024/02/26 13:21:49;;;;;;;;;;;8.60;1.00;;;;;;5038793;28;19927;-83
2024/02/26 13:24:14;;;;;;;;;;;8.50;1.00;;;;;;5055773;28;19960;-83
2024/02/26 13:26:40;;;;;;;;;;;8.50;1.00;;;;;;5036203;28;19928;-85
2024/02/26 13:29:05;;;;;;;;;;;8.50;1.00;;;;;;5034548;28;19920;-83
2024/02/26 13:31:31;;;;;;;;;;;8.60;1.00;;;;;;5032367;28;19995;-83
2024/02/26 13:33:56;;;;;;;;;;;8.60;1.00;;;;;;5055090;28;19913;-85
2024/02/26 13:36:22;;;;;;;;;;;8.70;1.00;;;;;;5057419;28;19919;-84
2024/02/26 13:38:52;;;;;;;;;;;8.80;1.00;;;;;;5054549;28;20399;-86
2024/02/26 13:41:17;;;;;;;;;;;8.90;1.00;;;;;;5053532;28;19979;-81
2024/02/26 13:43:43;;;;;;;;;;;9.00;1.00;;;;;;5048179;28;19951;-84
2024/02/26 13:46:10;;;;;;;;;;;9.00;1.00;;;;;;5041885;28;20661;-84
2024/02/26 13:48:36;;;;;;;;;;;8.90;1.00;;;;;;5035842;28;20927;-82
2024/02/26 13:51:02;;;;;;;;;;;8.90;1.00;;;;;;5034761;28;19917;-83
2024/02/26 13:53:27;;;;;;;;;;;8.80;1.00;;;;;;5048883;28;19948;-85
2024/02/26 13:55:52;;;;;;;;;;;8.70;1.00;;;;;;5048152;28;19913;-83
2024/02/26 13:58:22;;;;;;;;;;;8.60;1.00;;;;;;5049616;28;19913;-84
2024/02/26 14:00:48;;;;;;;;;;;8.60;1.00;;;;;;5049171;28;19912;-85
2024/02/26 14:03:13;;;;;;;;;;;8.60;1.00;;;;;;5051263;28;19923;-84
2024/02/26 14:05:39;;;;;;;;;;;8.70;1.00;;;;;;5051038;28;19995;-84
2024/02/26 14:08:05;;;;;;;;;;;8.70;1.00;;;;;;5054731;28;20003;-83
2024/02/26 14:10:31;;;;;;;;;;;8.60;1.00;;;;;;5055309;28;19913;-84
2024/02/26 14:12:57;;;;;;;;;;;8.60;1.00;;;;;;5052895;28;19944;-82
2024/02/26 14:15:24;;;;;;;;;;;8.60;1.00;;;;;;5050264;28;19913;-84
2024/02/26 14:17:55;;;;;;;;;;;8.70;1.00;;;;;;5054189;28;20004;-83
2024/02/26 14:20:24;;;;;;;;;;;8.60;1.00;;;;;;5053406;28;19913;-84
2024/02/26 14:22:52;;;;;;;;;;;8.60;1.00;;;;;;5053210;28;19979;-85
2024/02/26 14:25:17;;;;;;;;;;;8.60;1.00;;;;;;5054671;28;20352;-83
2024/02/26 14:27:43;;;;;;;;;;;8.60;1.00;;;;;;5051184;28;19920;-84
2024/02/26 14:30:08;;;;;;;;;;;8.50;1.00;;;;;;5056241;28;19917;-83
2024/02/26 14:32:36;;;;;;;;;;;8.50;1.00;;;;;;5050673;28;20655;-81